sensor_id;sensor_type;location;lat;lon;timestamp;temperature;humidity
23813;DHT22;12087;45.190;5.688;2022-09-09T00:00:19;20.00;99.90
23813;DHT22;12087;45.190;5.688;2022-09-09T00:05:44;19.90;99.90
23813;DHT22;12087;45.190;5.688;2022-09-09T00:11:12;20.00;99.90
23813;DHT22;12087;45.190;5.688;2022-09-09T00:16:38;20.00;99.90
23813;DHT22;12087;45.190;5.688;2022-09-09T00:22:14;20.00;99.90
23813;DHT22;12087;45.190;5.688;2022-09-09T00:27:40;19.90;99.90
23813;DHT22;12087;45.190;5.688;2022-09-09T00:33:11;20.00;99.90
23813;DHT22;12087;45.190;5.688;2022-09-09T00:38:37;20.10;99.90
23813;DHT22;12087;45.190;5.688;2022-09-09T00:44:16;20.00;99.90
23813;DHT22;12087;45.190;5.688;2022-09-09T00:49:51;20.00;99.90
23813;DHT22;12087;45.190;5.688;2022-09-09T00:55:19;20.00;99.90
23813;DHT22;12087;45.190;5.688;2022-09-09T01:00:44;20.00;99.90
23813;DHT22;12087;45.190;5.688;2022-09-09T01:06:28;19.90;99.90
23813;DHT22;12087;45.190;5.688;2022-09-09T01:11:57;19.80;99.90
23813;DHT22;12087;45.190;5.688;2022-09-09T01:17:26;19.80;99.90
23813;DHT22;12087;45.190;5.688;2022-09-09T01:23:02;19.80;99.90
23813;DHT22;12087;45.190;5.688;2022-09-09T01:28:28;19.70;99.90
23813;DHT22;12087;45.190;5.688;2022-09-09T01:33:50;19.60;99.90
23813;DHT22;12087;45.190;5.688;2022-09-09T01:39:13;19.50;99.90
23813;DHT22;12087;45.190;5.688;2022-09-09T01:44:38;19.40;99.90
23813;DHT22;12087;45.190;5.688;2022-09-09T01:50:01;19.30;99.90
23813;DHT22;12087;45.190;5.688;2022-09-09T01:55:28;19.20;99.90
23813;DHT22;12087;45.190;5.688;2022-09-09T02:00:59;19.10;99.90
23813;DHT22;12087;45.190;5.688;2022-09-09T02:06:29;19.00;99.90
23813;DHT22;12087;45.190;5.688;2022-09-09T02:11:57;19.00;99.90
23813;DHT22;12087;45.190;5.688;2022-09-09T02:17:27;19.00;99.90
23813;DHT22;12087;45.190;5.688;2022-09-09T02:22:50;18.90;99.90
23813;DHT22;12087;45.190;5.688;2022-09-09T02:28:13;18.90;99.90
23813;DHT22;12087;45.190;5.688;2022-09-09T02:33:41;18.90;99.90
23813;DHT22;12087;45.190;5.688;2022-09-09T02:39:05;18.90;99.90
23813;DHT22;12087;45.190;5.688;2022-09-09T02:44:29;18.80;99.90
23813;DHT22;12087;45.190;5.688;2022-09-09T02:49:59;18.80;99.90
23813;DHT22;12087;45.190;5.688;2022-09-09T02:55:31;18.80;99.90
23813;DHT22;12087;45.190;5.688;2022-09-09T03:00:57;18.80;99.90
23813;DHT22;12087;45.190;5.688;2022-09-09T03:06:23;18.90;99.90
23813;DHT22;12087;45.190;5.688;2022-09-09T03:11:45;18.80;99.90
23813;DHT22;12087;45.190;5.688;2022-09-09T03:17:07;18.70;99.90
23813;DHT22;12087;45.190;5.688;2022-09-09T03:22:31;18.60;99.90
23813;DHT22;12087;45.190;5.688;2022-09-09T03:27:54;18.50;99.90
23813;DHT22;12087;45.190;5.688;2022-09-09T03:33:17;18.40;99.90
23813;DHT22;12087;45.190;5.688;2022-09-09T03:38:40;18.40;99.90
23813;DHT22;12087;45.190;5.688;2022-09-09T03:44:03;18.30;99.90
23813;DHT22;12087;45.190;5.688;2022-09-09T03:49:25;18.20;99.90
23813;DHT22;12087;45.190;5.688;2022-09-09T03:54:50;18.20;99.90
23813;DHT22;12087;45.190;5.688;2022-09-09T04:00:13;18.20;99.90
23813;DHT22;12087;45.190;5.688;2022-09-09T04:05:36;18.30;99.90
23813;DHT22;12087;45.190;5.688;2022-09-09T04:11:02;18.30;99.90
23813;DHT22;12087;45.190;5.688;2022-09-09T04:16:27;18.30;99.90
23813;DHT22;12087;45.190;5.688;2022-09-09T04:21:49;18.30;99.90
23813;DHT22;12087;45.190;5.688;2022-09-09T04:27:13;18.10;99.90
23813;DHT22;12087;45.190;5.688;2022-09-09T04:32:35;18.10;99.90
23813;DHT22;12087;45.190;5.688;2022-09-09T04:37:58;18.10;99.90
23813;DHT22;12087;45.190;5.688;2022-09-09T04:43:22;18.10;99.90
23813;DHT22;12087;45.190;5.688;2022-09-09T04:48:46;18.00;99.90
23813;DHT22;12087;45.190;5.688;2022-09-09T04:54:10;18.10;99.90
23813;DHT22;12087;45.190;5.688;2022-09-09T04:59:33;17.90;99.90
23813;DHT22;12087;45.190;5.688;2022-09-09T05:04:56;17.80;99.90
23813;DHT22;12087;45.190;5.688;2022-09-09T05:10:18;17.70;99.90
23813;DHT22;12087;45.190;5.688;2022-09-09T05:15:42;17.60;99.90
23813;DHT22;12087;45.190;5.688;2022-09-09T05:21:14;17.60;99.90
23813;DHT22;12087;45.190;5.688;2022-09-09T05:26:37;17.50;99.90
23813;DHT22;12087;45.190;5.688;2022-09-09T05:32:01;17.50;99.90
23813;DHT22;12087;45.190;5.688;2022-09-09T05:37:23;17.40;99.90
23813;DHT22;12087;45.190;5.688;2022-09-09T05:42:46;17.40;99.90
23813;DHT22;12087;45.190;5.688;2022-09-09T05:48:09;17.40;99.90
23813;DHT22;12087;45.190;5.688;2022-09-09T05:53:32;17.40;99.90
23813;DHT22;12087;45.190;5.688;2022-09-09T05:58:55;17.40;99.90
23813;DHT22;12087;45.190;5.688;2022-09-09T06:04:19;17.40;99.90
23813;DHT22;12087;45.190;5.688;2022-09-09T06:09:45;17.40;99.90
23813;DHT22;12087;45.190;5.688;2022-09-09T06:15:09;17.40;99.90
23813;DHT22;12087;45.190;5.688;2022-09-09T06:20:32;17.40;99.90
23813;DHT22;12087;45.190;5.688;2022-09-09T06:26:03;17.50;99.90
23813;DHT22;12087;45.190;5.688;2022-09-09T06:31:28;17.50;99.90
23813;DHT22;12087;45.190;5.688;2022-09-09T06:36:53;17.60;99.90
23813;DHT22;12087;45.190;5.688;2022-09-09T06:42:18;17.60;99.90
23813;DHT22;12087;45.190;5.688;2022-09-09T06:47:40;17.70;99.90
23813;DHT22;12087;45.190;5.688;2022-09-09T06:53:04;17.70;99.90
23813;DHT22;12087;45.190;5.688;2022-09-09T06:58:26;17.80;99.90
23813;DHT22;12087;45.190;5.688;2022-09-09T07:03:50;18.00;99.90
23813;DHT22;12087;45.190;5.688;2022-09-09T07:09:15;18.00;99.90
23813;DHT22;12087;45.190;5.688;2022-09-09T07:14:37;18.10;99.90
23813;DHT22;12087;45.190;5.688;2022-09-09T07:20:00;18.20;99.90
23813;DHT22;12087;45.190;5.688;2022-09-09T07:25:24;18.30;99.90
23813;DHT22;12087;45.190;5.688;2022-09-09T07:30:56;18.40;99.90
23813;DHT22;12087;45.190;5.688;2022-09-09T07:36:20;18.60;99.90
23813;DHT22;12087;45.190;5.688;2022-09-09T07:41:46;18.80;99.90
23813;DHT22;12087;45.190;5.688;2022-09-09T07:47:09;19.00;99.90
23813;DHT22;12087;45.190;5.688;2022-09-09T07:52:31;19.20;99.90
23813;DHT22;12087;45.190;5.688;2022-09-09T07:57:56;19.30;99.90
23813;DHT22;12087;45.190;5.688;2022-09-09T08:03:19;19.50;99.90
23813;DHT22;12087;45.190;5.688;2022-09-09T08:08:42;19.70;99.90
23813;DHT22;12087;45.190;5.688;2022-09-09T08:14:08;19.80;99.90
23813;DHT22;12087;45.190;5.688;2022-09-09T08:19:31;20.00;99.90
23813;DHT22;12087;45.190;5.688;2022-09-09T08:24:56;20.20;99.90
23813;DHT22;12087;45.190;5.688;2022-09-09T08:30:20;20.20;99.90
23813;DHT22;12087;45.190;5.688;2022-09-09T08:35:50;20.40;99.90
23813;DHT22;12087;45.190;5.688;2022-09-09T08:41:28;20.50;99.90
23813;DHT22;12087;45.190;5.688;2022-09-09T08:47:00;20.60;99.90
23813;DHT22;12087;45.190;5.688;2022-09-09T08:52:29;20.80;99.90
23813;DHT22;12087;45.190;5.688;2022-09-09T08:57:53;20.80;99.90
23813;DHT22;12087;45.190;5.688;2022-09-09T09:03:24;21.00;99.90
23813;DHT22;12087;45.190;5.688;2022-09-09T09:08:54;21.10;99.90
23813;DHT22;12087;45.190;5.688;2022-09-09T09:14:23;21.30;99.90
23813;DHT22;12087;45.190;5.688;2022-09-09T09:19:48;21.50;99.90
23813;DHT22;12087;45.190;5.688;2022-09-09T09:25:15;21.70;99.90
23813;DHT22;12087;45.190;5.688;2022-09-09T09:30:42;21.80;99.90
23813;DHT22;12087;45.190;5.688;2022-09-09T09:36:08;22.00;99.90
23813;DHT22;12087;45.190;5.688;2022-09-09T09:41:32;22.00;99.90
23813;DHT22;12087;45.190;5.688;2022-09-09T09:47:06;22.20;99.90
23813;DHT22;12087;45.190;5.688;2022-09-09T09:52:31;22.30;99.90
23813;DHT22;12087;45.190;5.688;2022-09-09T09:58:01;22.40;99.90
23813;DHT22;12087;45.190;5.688;2022-09-09T10:03:26;22.50;99.90
23813;DHT22;12087;45.190;5.688;2022-09-09T10:08:50;22.70;99.90
23813;DHT22;12087;45.190;5.688;2022-09-09T10:14:19;22.80;99.00
23813;DHT22;12087;45.190;5.688;2022-09-09T10:19:48;22.90;98.60
23813;DHT22;12087;45.190;5.688;2022-09-09T10:25:22;23.10;97.90
23813;DHT22;12087;45.190;5.688;2022-09-09T10:30:56;23.30;98.30
23813;DHT22;12087;45.190;5.688;2022-09-09T10:36:24;23.40;97.90
23813;DHT22;12087;45.190;5.688;2022-09-09T10:41:50;23.60;96.80
23813;DHT22;12087;45.190;5.688;2022-09-09T10:47:30;23.70;96.20
23813;DHT22;12087;45.190;5.688;2022-09-09T10:53:00;23.80;96.20
23813;DHT22;12087;45.190;5.688;2022-09-09T10:58:27;24.00;95.80
23813;DHT22;12087;45.190;5.688;2022-09-09T11:03:56;24.20;97.10
23813;DHT22;12087;45.190;5.688;2022-09-09T11:09:22;24.30;94.10
23813;DHT22;12087;45.190;5.688;2022-09-09T11:14:49;24.50;93.80
23813;DHT22;12087;45.190;5.688;2022-09-09T11:20:13;24.80;94.10
23813;DHT22;12087;45.190;5.688;2022-09-09T11:25:38;24.90;93.10
23813;DHT22;12087;45.190;5.688;2022-09-09T11:31:19;25.00;92.60
23813;DHT22;12087;45.190;5.688;2022-09-09T11:37:08;25.00;92.20
23813;DHT22;12087;45.190;5.688;2022-09-09T11:42:35;24.80;92.20
23813;DHT22;12087;45.190;5.688;2022-09-09T11:47:59;24.90;91.00
23813;DHT22;12087;45.190;5.688;2022-09-09T11:53:22;25.20;90.30
23813;DHT22;12087;45.190;5.688;2022-09-09T11:58:54;25.40;90.80
23813;DHT22;12087;45.190;5.688;2022-09-09T12:04:39;25.60;89.60
23813;DHT22;12087;45.190;5.688;2022-09-09T12:10:19;25.80;88.60
23813;DHT22;12087;45.190;5.688;2022-09-09T12:15:48;25.70;86.60
23813;DHT22;12087;45.190;5.688;2022-09-09T12:21:28;25.80;85.90
23813;DHT22;12087;45.190;5.688;2022-09-09T12:26:58;26.10;80.40
23813;DHT22;12087;45.190;5.688;2022-09-09T12:32:25;26.20;82.00
23813;DHT22;12087;45.190;5.688;2022-09-09T12:37:53;26.50;77.20
23813;DHT22;12087;45.190;5.688;2022-09-09T12:43:20;26.60;76.70
23813;DHT22;12087;45.190;5.688;2022-09-09T12:48:42;26.60;75.90
23813;DHT22;12087;45.190;5.688;2022-09-09T12:54:14;26.80;74.20
23813;DHT22;12087;45.190;5.688;2022-09-09T12:59:38;27.10;71.40
23813;DHT22;12087;45.190;5.688;2022-09-09T13:05:09;27.00;70.10
23813;DHT22;12087;45.190;5.688;2022-09-09T13:10:39;27.10;68.00
23813;DHT22;12087;45.190;5.688;2022-09-09T13:16:04;27.10;67.60
23813;DHT22;12087;45.190;5.688;2022-09-09T13:21:33;27.30;66.00
23813;DHT22;12087;45.190;5.688;2022-09-09T13:26:58;27.50;65.80
23813;DHT22;12087;45.190;5.688;2022-09-09T13:32:24;27.50;64.40
23813;DHT22;12087;45.190;5.688;2022-09-09T13:37:47;27.60;63.90
23813;DHT22;12087;45.190;5.688;2022-09-09T13:43:22;27.90;62.50
23813;DHT22;12087;45.190;5.688;2022-09-09T13:48:54;27.80;60.90
23813;DHT22;12087;45.190;5.688;2022-09-09T13:54:19;27.70;61.40
23813;DHT22;12087;45.190;5.688;2022-09-09T13:59:43;27.70;59.30
23813;DHT22;12087;45.190;5.688;2022-09-09T14:05:06;27.80;59.40
23813;DHT22;12087;45.190;5.688;2022-09-09T14:10:28;27.90;59.40
23813;DHT22;12087;45.190;5.688;2022-09-09T14:15:52;28.00;58.60
23813;DHT22;12087;45.190;5.688;2022-09-09T14:21:15;27.90;54.90
23813;DHT22;12087;45.190;5.688;2022-09-09T14:26:37;28.00;56.30
23813;DHT22;12087;45.190;5.688;2022-09-09T14:32:01;27.80;55.00
23813;DHT22;12087;45.190;5.688;2022-09-09T14:37:23;27.60;54.80
23813;DHT22;12087;45.190;5.688;2022-09-09T14:42:46;27.40;52.90
23813;DHT22;12087;45.190;5.688;2022-09-09T14:48:09;27.40;54.10
23813;DHT22;12087;45.190;5.688;2022-09-09T14:53:31;27.30;54.70
23813;DHT22;12087;45.190;5.688;2022-09-09T14:58:55;27.30;51.80
23813;DHT22;12087;45.190;5.688;2022-09-09T15:04:19;27.10;52.50
23813;DHT22;12087;45.190;5.688;2022-09-09T15:09:41;26.80;53.20
23813;DHT22;12087;45.190;5.688;2022-09-09T15:15:04;26.70;57.30
23813;DHT22;12087;45.190;5.688;2022-09-09T15:20:28;26.60;55.50
23813;DHT22;12087;45.190;5.688;2022-09-09T15:26:01;26.60;54.90
23813;DHT22;12087;45.190;5.688;2022-09-09T15:31:27;26.50;56.60
23813;DHT22;12087;45.190;5.688;2022-09-09T15:36:52;26.50;55.40
23813;DHT22;12087;45.190;5.688;2022-09-09T15:42:16;26.40;57.00
23813;DHT22;12087;45.190;5.688;2022-09-09T15:47:38;26.30;58.80
23813;DHT22;12087;45.190;5.688;2022-09-09T15:53:01;26.10;57.50
23813;DHT22;12087;45.190;5.688;2022-09-09T15:58:24;26.10;58.10
23813;DHT22;12087;45.190;5.688;2022-09-09T16:03:46;26.00;59.10
23813;DHT22;12087;45.190;5.688;2022-09-09T16:09:12;26.00;56.80
23813;DHT22;12087;45.190;5.688;2022-09-09T16:14:34;25.90;56.30
23813;DHT22;12087;45.190;5.688;2022-09-09T16:19:56;25.70;56.70
23813;DHT22;12087;45.190;5.688;2022-09-09T16:25:20;25.60;60.40
23813;DHT22;12087;45.190;5.688;2022-09-09T16:30:43;25.40;59.40
23813;DHT22;12087;45.190;5.688;2022-09-09T16:36:06;25.30;58.30
23813;DHT22;12087;45.190;5.688;2022-09-09T16:41:30;25.20;59.30
23813;DHT22;12087;45.190;5.688;2022-09-09T16:46:52;25.00;61.90
23813;DHT22;12087;45.190;5.688;2022-09-09T16:52:15;24.80;59.70
23813;DHT22;12087;45.190;5.688;2022-09-09T16:57:39;24.70;61.90
23813;DHT22;12087;45.190;5.688;2022-09-09T17:03:02;24.60;62.90
23813;DHT22;12087;45.190;5.688;2022-09-09T17:08:24;24.50;63.00
23813;DHT22;12087;45.190;5.688;2022-09-09T17:13:48;24.40;65.50
23813;DHT22;12087;45.190;5.688;2022-09-09T17:19:10;24.30;62.70
23813;DHT22;12087;45.190;5.688;2022-09-09T17:24:33;24.10;63.60
23813;DHT22;12087;45.190;5.688;2022-09-09T17:29:57;24.10;67.20
23813;DHT22;12087;45.190;5.688;2022-09-09T17:35:19;23.90;68.30
23813;DHT22;12087;45.190;5.688;2022-09-09T17:40:41;23.90;67.10
23813;DHT22;12087;45.190;5.688;2022-09-09T17:46:10;23.80;66.90
23813;DHT22;12087;45.190;5.688;2022-09-09T17:51:34;23.60;68.50
23813;DHT22;12087;45.190;5.688;2022-09-09T17:56:56;23.60;68.40
23813;DHT22;12087;45.190;5.688;2022-09-09T18:02:21;23.50;68.90
23813;DHT22;12087;45.190;5.688;2022-09-09T18:07:43;23.40;70.70
23813;DHT22;12087;45.190;5.688;2022-09-09T18:13:05;23.30;68.90
23813;DHT22;12087;45.190;5.688;2022-09-09T18:18:31;23.30;70.50
23813;DHT22;12087;45.190;5.688;2022-09-09T18:23:53;23.10;71.00
23813;DHT22;12087;45.190;5.688;2022-09-09T18:29:18;23.10;71.50
23813;DHT22;12087;45.190;5.688;2022-09-09T18:34:42;23.00;72.50
23813;DHT22;12087;45.190;5.688;2022-09-09T18:40:05;22.90;73.80
23813;DHT22;12087;45.190;5.688;2022-09-09T18:45:27;22.80;73.40
23813;DHT22;12087;45.190;5.688;2022-09-09T18:50:51;22.80;74.90
23813;DHT22;12087;45.190;5.688;2022-09-09T18:56:13;22.70;74.10
23813;DHT22;12087;45.190;5.688;2022-09-09T19:01:35;22.70;73.30
23813;DHT22;12087;45.190;5.688;2022-09-09T19:06:59;22.60;73.00
23813;DHT22;12087;45.190;5.688;2022-09-09T19:12:22;22.60;74.10
23813;DHT22;12087;45.190;5.688;2022-09-09T19:17:44;22.60;73.10
23813;DHT22;12087;45.190;5.688;2022-09-09T19:23:09;22.40;74.40
23813;DHT22;12087;45.190;5.688;2022-09-09T19:28:31;22.30;73.30
23813;DHT22;12087;45.190;5.688;2022-09-09T19:33:54;22.20;73.70
23813;DHT22;12087;45.190;5.688;2022-09-09T19:39:18;22.10;75.10
23813;DHT22;12087;45.190;5.688;2022-09-09T19:44:44;22.00;74.20
23813;DHT22;12087;45.190;5.688;2022-09-09T19:50:07;22.00;76.70
23813;DHT22;12087;45.190;5.688;2022-09-09T19:55:30;21.90;75.60
23813;DHT22;12087;45.190;5.688;2022-09-09T20:00:55;21.80;74.50
23813;DHT22;12087;45.190;5.688;2022-09-09T20:06:19;21.80;75.20
23813;DHT22;12087;45.190;5.688;2022-09-09T20:11:46;21.70;77.90
23813;DHT22;12087;45.190;5.688;2022-09-09T20:17:08;21.70;79.30
23813;DHT22;12087;45.190;5.688;2022-09-09T20:22:30;21.50;82.20
23813;DHT22;12087;45.190;5.688;2022-09-09T20:27:57;21.50;83.90
23813;DHT22;12087;45.190;5.688;2022-09-09T20:33:19;21.40;86.60
23813;DHT22;12087;45.190;5.688;2022-09-09T20:38:42;21.30;86.80
23813;DHT22;12087;45.190;5.688;2022-09-09T20:44:08;21.20;87.60
23813;DHT22;12087;45.190;5.688;2022-09-09T20:49:32;21.20;87.10
23813;DHT22;12087;45.190;5.688;2022-09-09T20:54:56;21.20;87.30
23813;DHT22;12087;45.190;5.688;2022-09-09T21:00:19;21.10;87.60
23813;DHT22;12087;45.190;5.688;2022-09-09T21:05:42;21.10;88.80
23813;DHT22;12087;45.190;5.688;2022-09-09T21:11:04;21.10;88.40
23813;DHT22;12087;45.190;5.688;2022-09-09T21:16:28;21.10;88.80
23813;DHT22;12087;45.190;5.688;2022-09-09T21:21:51;21.10;89.70
23813;DHT22;12087;45.190;5.688;2022-09-09T21:27:13;21.00;90.30
23813;DHT22;12087;45.190;5.688;2022-09-09T21:32:37;20.90;90.50
23813;DHT22;12087;45.190;5.688;2022-09-09T21:37:59;20.90;90.70
23813;DHT22;12087;45.190;5.688;2022-09-09T21:43:22;20.90;90.90
23813;DHT22;12087;45.190;5.688;2022-09-09T21:48:46;20.80;91.30
23813;DHT22;12087;45.190;5.688;2022-09-09T21:54:08;20.80;91.70
23813;DHT22;12087;45.190;5.688;2022-09-09T21:59:30;20.80;92.30
23813;DHT22;12087;45.190;5.688;2022-09-09T22:04:55;20.80;92.20
23813;DHT22;12087;45.190;5.688;2022-09-09T22:10:17;20.70;92.80
23813;DHT22;12087;45.190;5.688;2022-09-09T22:15:40;20.70;93.20
23813;DHT22;12087;45.190;5.688;2022-09-09T22:21:08;20.70;93.50
23813;DHT22;12087;45.190;5.688;2022-09-09T22:26:32;20.60;94.10
23813;DHT22;12087;45.190;5.688;2022-09-09T22:31:56;20.60;95.20
23813;DHT22;12087;45.190;5.688;2022-09-09T22:37:19;20.60;95.80
23813;DHT22;12087;45.190;5.688;2022-09-09T22:42:42;20.60;95.60
23813;DHT22;12087;45.190;5.688;2022-09-09T22:48:04;20.50;96.20
23813;DHT22;12087;45.190;5.688;2022-09-09T22:53:28;20.50;96.30
23813;DHT22;12087;45.190;5.688;2022-09-09T22:58:53;20.40;97.10
23813;DHT22;12087;45.190;5.688;2022-09-09T23:04:16;20.40;97.50
23813;DHT22;12087;45.190;5.688;2022-09-09T23:09:43;20.20;98.20
23813;DHT22;12087;45.190;5.688;2022-09-09T23:15:07;20.20;98.50
23813;DHT22;12087;45.190;5.688;2022-09-09T23:20:30;20.20;98.80
23813;DHT22;12087;45.190;5.688;2022-09-09T23:25:55;20.10;99.20
23813;DHT22;12087;45.190;5.688;2022-09-09T23:31:18;20.10;99.90
23813;DHT22;12087;45.190;5.688;2022-09-09T23:36:41;20.00;99.90
23813;DHT22;12087;45.190;5.688;2022-09-09T23:42:06;20.00;99.90
23813;DHT22;12087;45.190;5.688;2022-09-09T23:47:28;19.90;99.90
23813;DHT22;12087;45.190;5.688;2022-09-09T23:52:50;19.80;99.90
23813;DHT22;12087;45.190;5.688;2022-09-09T23:58:14;19.80;99.90
